createdAt,value
2024-01-20T00:05:51.898Z,16.03
2024-01-20T00:15:56.370Z,22.87
2024-01-20T00:25:59.694Z,13.30
2024-01-20T00:36:04.846Z,15.20
2024-01-20T00:46:07.911Z,12.87
2024-01-20T00:56:12.370Z,20.97
2024-01-20T01:06:15.610Z,19.10
2024-01-20T01:16:20.633Z,14.40
2024-01-20T01:26:26.387Z,18.47
2024-01-20T01:36:32.061Z,14.03
2024-01-20T01:46:35.871Z,17.87
2024-01-20T01:56:42.645Z,16.93
2024-01-20T02:06:46.362Z,19.57
2024-01-20T02:16:51.844Z,18.60
2024-01-20T02:26:56.446Z,18.73
2024-01-20T02:36:59.608Z,14.63
2024-01-20T02:47:04.376Z,15.10
2024-01-20T02:57:07.729Z,22.27
2024-01-20T03:07:12.290Z,14.17
2024-01-20T03:17:15.374Z,19.13
2024-01-20T03:27:20.819Z,19.03
2024-01-20T03:37:23.881Z,18.73
2024-01-20T03:47:30.335Z,20.87
2024-01-20T03:57:34.356Z,20.03
2024-01-20T04:07:39.810Z,20.67
2024-01-20T04:17:42.962Z,18.37
2024-01-20T04:27:47.326Z,21.87
2024-01-20T04:37:51.302Z,17.57
2024-01-20T04:47:55.969Z,17.57
2024-01-20T04:57:59.243Z,19.30
2024-01-20T05:08:03.980Z,13.83
2024-01-20T05:18:07.767Z,20.17
2024-01-20T05:28:12.489Z,16.07
2024-01-20T05:38:15.684Z,16.47
2024-01-20T05:48:20.232Z,17.33
2024-01-20T05:58:23.935Z,14.37
2024-01-20T06:08:29.044Z,14.33
2024-01-20T06:18:33.080Z,12.93
2024-01-20T06:28:37.908Z,12.63
2024-01-20T06:38:41.040Z,14.30
2024-01-20T06:48:46.144Z,15.23
2024-01-20T06:58:49.382Z,14.83
2024-01-20T07:08:54.065Z,12.27
2024-01-20T07:18:57.352Z,14.60
2024-01-20T07:29:02.053Z,18.63
2024-01-20T07:39:05.825Z,19.03
2024-01-20T07:49:10.494Z,15.33
2024-01-20T07:59:13.981Z,13.43
2024-01-20T08:09:18.561Z,15.87
2024-01-20T08:19:21.974Z,16.20
2024-01-20T08:29:26.691Z,15.80
2024-01-20T08:39:29.696Z,16.47
2024-01-20T08:49:33.992Z,16.33
2024-01-20T08:59:37.097Z,13.80
2024-01-20T09:09:41.583Z,14.83
2024-01-20T09:19:46.033Z,15.13
2024-01-20T09:29:50.566Z,15.23
2024-01-20T09:39:53.559Z,11.47
2024-01-20T09:49:58.133Z,11.13
2024-01-20T10:00:06.406Z,15.80
2024-01-20T10:10:22.855Z,12.93
2024-01-20T10:20:27.661Z,13.03
2024-01-20T10:30:31.996Z,13.43
2024-01-20T10:40:41.600Z,15.57
2024-01-20T10:50:52.267Z,12.73
2024-01-20T11:00:56.437Z,13.80
2024-01-20T11:11:01.773Z,13.43
2024-01-20T11:21:05.964Z,16.63
2024-01-20T11:31:19.503Z,13.47
2024-01-20T11:41:22.807Z,18.77
2024-01-20T11:51:27.439Z,18.20
2024-01-20T12:01:30.683Z,16.90
2024-01-20T12:11:36.780Z,16.50
2024-01-20T12:22:30.621Z,17.93
2024-01-20T12:32:35.316Z,19.27
2024-01-20T12:42:41.261Z,16.43
2024-01-20T12:52:46.523Z,23.80
2024-01-20T13:02:49.684Z,20.43
2024-01-20T13:12:54.273Z,19.63
2024-01-20T13:22:57.513Z,16.40
2024-01-20T13:33:02.202Z,21.77
2024-01-20T13:43:05.617Z,22.00
2024-01-20T13:53:10.691Z,20.40
2024-01-20T14:03:14.190Z,22.80
2024-01-20T14:13:18.911Z,20.87
2024-01-20T14:23:23.425Z,23.03
2024-01-20T14:33:28.247Z,21.37
2024-01-20T14:43:32.530Z,26.33
2024-01-20T14:53:36.938Z,24.03
2024-01-20T15:03:40.287Z,23.27
2024-01-20T15:13:45.976Z,21.87
2024-01-20T15:23:50.766Z,24.43
2024-01-20T15:33:57.828Z,29.50
2024-01-20T15:44:01.549Z,24.13
2024-01-20T15:54:06.090Z,23.90
2024-01-20T16:04:10.070Z,24.20
2024-01-20T16:14:14.664Z,23.57
2024-01-20T16:24:17.924Z,23.63
2024-01-20T16:34:23.727Z,26.13
2024-01-20T16:44:27.201Z,25.00
2024-01-20T16:54:32.601Z,25.87
2024-01-20T17:04:35.876Z,25.40
2024-01-20T17:14:40.903Z,30.53
2024-01-20T17:24:44.745Z,28.73
2024-01-20T17:34:49.591Z,27.47
2024-01-20T17:44:53.262Z,20.63
2024-01-20T17:54:58.438Z,21.87
2024-01-20T18:05:02.066Z,22.90
2024-01-20T18:15:08.545Z,54.33
2024-01-20T18:25:11.963Z,45.63
2024-01-20T18:35:16.826Z,25.60
2024-01-20T18:45:20.524Z,24.30
2024-01-20T18:55:25.023Z,33.57
2024-01-20T19:05:28.694Z,24.03
2024-01-20T19:15:33.228Z,22.17
2024-01-20T19:25:36.525Z,24.20
2024-01-20T19:35:41.320Z,37.67
2024-01-20T19:45:45.549Z,23.70
2024-01-20T19:55:49.846Z,29.17
2024-01-20T20:05:53.023Z,22.20
2024-01-20T20:15:58.393Z,24.77
2024-01-20T20:26:01.724Z,22.17
2024-01-20T20:36:07.128Z,23.27
2024-01-20T20:46:10.476Z,27.67
2024-01-20T20:56:15.423Z,27.50
2024-01-20T21:06:19.373Z,22.90
2024-01-20T21:16:25.444Z,21.97
2024-01-20T21:26:29.566Z,21.97
2024-01-20T21:36:34.651Z,17.47
2024-01-20T21:46:39.462Z,15.20
2024-01-20T21:56:43.751Z,15.63
2024-01-20T22:06:47.233Z,14.93
2024-01-20T22:16:51.705Z,13.90
2024-01-20T22:26:54.651Z,16.03
2024-01-20T22:36:58.950Z,13.70
2024-01-20T22:47:02.290Z,11.50
2024-01-20T22:57:08.464Z,11.60
2024-01-20T23:07:11.664Z,13.60
2024-01-20T23:17:17.019Z,11.93
2024-01-20T23:27:21.461Z,12.73
2024-01-20T23:37:25.893Z,12.40
2024-01-20T23:47:29.002Z,11.23
2024-01-20T23:57:33.947Z,12.53
